sensor_id;sensor_type;location;lat;lon;timestamp;P1;durP1;ratioP1;P2;durP2;ratioP2
58260;SDS011;44058;52.898;6.502;2022-09-09T00:06:31;9.20;;;8.30;;
58260;SDS011;44058;52.898;6.502;2022-09-09T00:09:25;8.73;;;7.93;;
58260;SDS011;44058;52.898;6.502;2022-09-09T00:12:12;11.82;;;10.68;;
58260;SDS011;44058;52.898;6.502;2022-09-09T00:14:47;9.65;;;8.68;;
58260;SDS011;44058;52.898;6.502;2022-09-09T00:20:28;9.80;;;8.15;;
58260;SDS011;44058;52.898;6.502;2022-09-09T00:32:04;9.93;;;8.05;;
58260;SDS011;44058;52.898;6.502;2022-09-09T00:35:02;9.43;;;8.03;;
58260;SDS011;44058;52.898;6.502;2022-09-09T00:37:59;11.35;;;9.73;;
58260;SDS011;44058;52.898;6.502;2022-09-09T00:40:50;13.10;;;10.27;;
58260;SDS011;44058;52.898;6.502;2022-09-09T00:43:39;10.07;;;9.05;;
58260;SDS011;44058;52.898;6.502;2022-09-09T00:46:45;13.80;;;11.35;;
58260;SDS011;44058;52.898;6.502;2022-09-09T00:49:59;12.57;;;9.10;;
58260;SDS011;44058;52.898;6.502;2022-09-09T00:52:55;9.32;;;8.38;;
58260;SDS011;44058;52.898;6.502;2022-09-09T00:56:15;10.27;;;9.25;;
58260;SDS011;44058;52.898;6.502;2022-09-09T01:02:28;10.10;;;8.68;;
58260;SDS011;44058;52.898;6.502;2022-09-09T01:05:35;10.07;;;9.05;;
58260;SDS011;44058;52.898;6.502;2022-09-09T01:11:37;11.00;;;9.05;;
58260;SDS011;44058;52.898;6.502;2022-09-09T01:23:15;10.43;;;9.45;;
58260;SDS011;44058;52.898;6.502;2022-09-09T01:26:25;13.35;;;11.00;;
58260;SDS011;44058;52.898;6.502;2022-09-09T01:29:16;9.93;;;8.93;;
58260;SDS011;44058;52.898;6.502;2022-09-09T01:32:37;10.25;;;9.07;;
58260;SDS011;44058;52.898;6.502;2022-09-09T01:38:15;11.13;;;9.02;;
58260;SDS011;44058;52.898;6.502;2022-09-09T01:41:01;10.82;;;8.50;;
58260;SDS011;44058;52.898;6.502;2022-09-09T01:43:47;8.57;;;7.43;;
58260;SDS011;44058;52.898;6.502;2022-09-09T01:46:34;8.10;;;7.07;;
58260;SDS011;44058;52.898;6.502;2022-09-09T01:49:19;13.07;;;8.98;;
58260;SDS011;44058;52.898;6.502;2022-09-09T01:52:06;10.93;;;7.70;;
58260;SDS011;44058;52.898;6.502;2022-09-09T01:54:53;11.48;;;7.93;;
58260;SDS011;44058;52.898;6.502;2022-09-09T02:00:33;9.32;;;7.60;;
58260;SDS011;44058;52.898;6.502;2022-09-09T02:03:27;12.00;;;7.57;;
58260;SDS011;44058;52.898;6.502;2022-09-09T02:06:30;9.20;;;7.40;;
58260;SDS011;44058;52.898;6.502;2022-09-09T02:09:21;9.50;;;7.90;;
58260;SDS011;44058;52.898;6.502;2022-09-09T02:12:11;9.77;;;7.47;;
58260;SDS011;44058;52.898;6.502;2022-09-09T02:15:01;8.27;;;6.88;;
58260;SDS011;44058;52.898;6.502;2022-09-09T02:17:51;8.20;;;6.82;;
58260;SDS011;44058;52.898;6.502;2022-09-09T02:20:38;7.53;;;6.45;;
58260;SDS011;44058;52.898;6.502;2022-09-09T02:23:24;8.32;;;7.10;;
58260;SDS011;44058;52.898;6.502;2022-09-09T02:26:10;8.43;;;6.70;;
58260;SDS011;44058;52.898;6.502;2022-09-09T02:29:01;7.63;;;6.47;;
58260;SDS011;44058;52.898;6.502;2022-09-09T02:31:48;6.82;;;6.13;;
58260;SDS011;44058;52.898;6.502;2022-09-09T02:34:36;13.80;;;9.25;;
58260;SDS011;44058;52.898;6.502;2022-09-09T02:37:27;9.52;;;8.52;;
58260;SDS011;44058;52.898;6.502;2022-09-09T02:40:18;8.80;;;7.90;;
58260;SDS011;44058;52.898;6.502;2022-09-09T02:43:05;11.27;;;8.40;;
58260;SDS011;44058;52.898;6.502;2022-09-09T02:45:53;9.02;;;8.00;;
58260;SDS011;44058;52.898;6.502;2022-09-09T02:52:12;10.88;;;8.02;;
58260;SDS011;44058;52.898;6.502;2022-09-09T02:55:05;8.60;;;6.28;;
58260;SDS011;44058;52.898;6.502;2022-09-09T02:57:57;7.50;;;6.65;;
58260;SDS011;44058;52.898;6.502;2022-09-09T03:00:48;10.18;;;6.13;;
58260;SDS011;44058;52.898;6.502;2022-09-09T03:03:35;9.48;;;7.25;;
58260;SDS011;44058;52.898;6.502;2022-09-09T03:06:21;7.95;;;7.07;;
58260;SDS011;44058;52.898;6.502;2022-09-09T03:09:07;8.63;;;7.18;;
58260;SDS011;44058;52.898;6.502;2022-09-09T03:11:55;8.98;;;7.60;;
58260;SDS011;44058;52.898;6.502;2022-09-09T03:14:41;8.05;;;6.80;;
58260;SDS011;44058;52.898;6.502;2022-09-09T03:17:28;8.60;;;7.70;;
58260;SDS011;44058;52.898;6.502;2022-09-09T03:20:13;9.13;;;7.35;;
58260;SDS011;44058;52.898;6.502;2022-09-09T03:22:59;9.68;;;7.78;;
58260;SDS011;44058;52.898;6.502;2022-09-09T03:25:46;8.65;;;7.75;;
58260;SDS011;44058;52.898;6.502;2022-09-09T03:28:33;8.63;;;6.50;;
58260;SDS011;44058;52.898;6.502;2022-09-09T03:31:20;7.55;;;6.43;;
58260;SDS011;44058;52.898;6.502;2022-09-09T03:34:06;7.95;;;6.20;;
58260;SDS011;44058;52.898;6.502;2022-09-09T03:36:52;7.35;;;6.20;;
58260;SDS011;44058;52.898;6.502;2022-09-09T03:39:37;9.02;;;6.68;;
58260;SDS011;44058;52.898;6.502;2022-09-09T03:42:23;8.40;;;7.60;;
58260;SDS011;44058;52.898;6.502;2022-09-09T03:45:09;9.05;;;7.57;;
58260;SDS011;44058;52.898;6.502;2022-09-09T03:47:56;9.05;;;7.50;;
58260;SDS011;44058;52.898;6.502;2022-09-09T03:50:50;9.35;;;8.45;;
58260;SDS011;44058;52.898;6.502;2022-09-09T03:53:36;9.45;;;8.40;;
58260;SDS011;44058;52.898;6.502;2022-09-09T03:56:24;9.85;;;8.90;;
58260;SDS011;44058;52.898;6.502;2022-09-09T03:59:09;11.50;;;8.57;;
58260;SDS011;44058;52.898;6.502;2022-09-09T04:01:55;9.75;;;8.68;;
58260;SDS011;44058;52.898;6.502;2022-09-09T04:04:42;9.95;;;9.00;;
58260;SDS011;44058;52.898;6.502;2022-09-09T04:07:27;10.10;;;9.07;;
58260;SDS011;44058;52.898;6.502;2022-09-09T04:10:13;8.38;;;7.60;;
58260;SDS011;44058;52.898;6.502;2022-09-09T04:13:00;10.13;;;9.30;;
58260;SDS011;44058;52.898;6.502;2022-09-09T04:15:53;9.20;;;8.25;;
58260;SDS011;44058;52.898;6.502;2022-09-09T04:18:40;11.13;;;9.95;;
58260;SDS011;44058;52.898;6.502;2022-09-09T04:21:26;10.00;;;8.70;;
58260;SDS011;44058;52.898;6.502;2022-09-09T04:24:12;10.60;;;9.43;;
58260;SDS011;44058;52.898;6.502;2022-09-09T04:26:58;10.32;;;9.05;;
58260;SDS011;44058;52.898;6.502;2022-09-09T04:29:43;11.25;;;9.50;;
58260;SDS011;44058;52.898;6.502;2022-09-09T04:32:29;12.10;;;10.57;;
58260;SDS011;44058;52.898;6.502;2022-09-09T04:35:17;12.83;;;11.10;;
58260;SDS011;44058;52.898;6.502;2022-09-09T04:38:03;13.82;;;11.48;;
58260;SDS011;44058;52.898;6.502;2022-09-09T04:40:50;13.18;;;11.82;;
58260;SDS011;44058;52.898;6.502;2022-09-09T04:43:37;12.60;;;11.07;;
58260;SDS011;44058;52.898;6.502;2022-09-09T04:46:24;12.20;;;11.07;;
58260;SDS011;44058;52.898;6.502;2022-09-09T04:49:13;14.05;;;12.35;;
58260;SDS011;44058;52.898;6.502;2022-09-09T04:51:58;14.88;;;12.32;;
58260;SDS011;44058;52.898;6.502;2022-09-09T04:54:44;13.98;;;12.65;;
58260;SDS011;44058;52.898;6.502;2022-09-09T04:57:31;15.07;;;13.18;;
58260;SDS011;44058;52.898;6.502;2022-09-09T05:00:18;14.15;;;12.80;;
58260;SDS011;44058;52.898;6.502;2022-09-09T05:03:04;13.45;;;12.10;;
58260;SDS011;44058;52.898;6.502;2022-09-09T05:05:51;13.18;;;11.88;;
58260;SDS011;44058;52.898;6.502;2022-09-09T05:08:38;15.68;;;12.57;;
58260;SDS011;44058;52.898;6.502;2022-09-09T05:11:26;14.75;;;12.95;;
58260;SDS011;44058;52.898;6.502;2022-09-09T05:17:00;13.73;;;12.25;;
58260;SDS011;44058;52.898;6.502;2022-09-09T05:19:46;13.73;;;12.27;;
58260;SDS011;44058;52.898;6.502;2022-09-09T05:22:31;13.88;;;12.48;;
58260;SDS011;44058;52.898;6.502;2022-09-09T05:25:17;12.45;;;11.32;;
58260;SDS011;44058;52.898;6.502;2022-09-09T05:28:03;13.15;;;11.57;;
58260;SDS011;44058;52.898;6.502;2022-09-09T05:31:00;12.65;;;11.48;;
58260;SDS011;44058;52.898;6.502;2022-09-09T05:33:54;12.35;;;11.20;;
58260;SDS011;44058;52.898;6.502;2022-09-09T05:36:39;13.30;;;11.98;;
58260;SDS011;44058;52.898;6.502;2022-09-09T05:39:25;13.20;;;11.27;;
58260;SDS011;44058;52.898;6.502;2022-09-09T05:42:10;13.48;;;12.25;;
58260;SDS011;44058;52.898;6.502;2022-09-09T05:44:56;13.30;;;12.00;;
58260;SDS011;44058;52.898;6.502;2022-09-09T05:47:42;12.18;;;10.95;;
58260;SDS011;44058;52.898;6.502;2022-09-09T05:50:28;12.18;;;11.18;;
58260;SDS011;44058;52.898;6.502;2022-09-09T05:53:13;12.68;;;11.57;;
58260;SDS011;44058;52.898;6.502;2022-09-09T05:56:06;12.48;;;11.40;;
58260;SDS011;44058;52.898;6.502;2022-09-09T05:58:56;13.13;;;11.82;;
58260;SDS011;44058;52.898;6.502;2022-09-09T06:01:41;13.75;;;12.40;;
58260;SDS011;44058;52.898;6.502;2022-09-09T06:04:27;12.93;;;11.63;;
58260;SDS011;44058;52.898;6.502;2022-09-09T06:07:13;12.00;;;10.90;;
58260;SDS011;44058;52.898;6.502;2022-09-09T06:09:59;12.63;;;11.32;;
58260;SDS011;44058;52.898;6.502;2022-09-09T06:12:45;11.05;;;10.15;;
58260;SDS011;44058;52.898;6.502;2022-09-09T06:15:30;11.65;;;10.65;;
58260;SDS011;44058;52.898;6.502;2022-09-09T06:18:16;13.68;;;11.18;;
58260;SDS011;44058;52.898;6.502;2022-09-09T06:21:04;12.20;;;11.10;;
58260;SDS011;44058;52.898;6.502;2022-09-09T06:23:52;11.43;;;10.32;;
58260;SDS011;44058;52.898;6.502;2022-09-09T06:26:39;11.10;;;10.00;;
58260;SDS011;44058;52.898;6.502;2022-09-09T06:29:27;11.05;;;10.05;;
58260;SDS011;44058;52.898;6.502;2022-09-09T06:32:13;10.98;;;9.88;;
58260;SDS011;44058;52.898;6.502;2022-09-09T06:34:59;11.63;;;10.43;;
58260;SDS011;44058;52.898;6.502;2022-09-09T06:37:46;12.00;;;10.82;;
58260;SDS011;44058;52.898;6.502;2022-09-09T06:40:33;12.10;;;10.90;;
58260;SDS011;44058;52.898;6.502;2022-09-09T06:43:20;12.23;;;10.50;;
58260;SDS011;44058;52.898;6.502;2022-09-09T06:46:11;11.30;;;10.07;;
58260;SDS011;44058;52.898;6.502;2022-09-09T06:48:58;10.43;;;9.48;;
58260;SDS011;44058;52.898;6.502;2022-09-09T06:51:44;10.30;;;9.18;;
58260;SDS011;44058;52.898;6.502;2022-09-09T06:54:31;11.68;;;10.27;;
58260;SDS011;44058;52.898;6.502;2022-09-09T06:57:16;11.52;;;10.43;;
58260;SDS011;44058;52.898;6.502;2022-09-09T07:00:03;12.40;;;10.48;;
58260;SDS011;44058;52.898;6.502;2022-09-09T07:02:50;11.80;;;10.80;;
58260;SDS011;44058;52.898;6.502;2022-09-09T07:05:36;11.20;;;10.00;;
58260;SDS011;44058;52.898;6.502;2022-09-09T07:08:22;10.35;;;9.00;;
58260;SDS011;44058;52.898;6.502;2022-09-09T07:11:08;10.43;;;9.32;;
58260;SDS011;44058;52.898;6.502;2022-09-09T07:13:54;13.10;;;9.43;;
58260;SDS011;44058;52.898;6.502;2022-09-09T07:16:41;10.27;;;8.82;;
58260;SDS011;44058;52.898;6.502;2022-09-09T07:19:27;10.52;;;9.63;;
58260;SDS011;44058;52.898;6.502;2022-09-09T07:22:12;9.85;;;8.88;;
58260;SDS011;44058;52.898;6.502;2022-09-09T07:24:58;9.38;;;8.48;;
58260;SDS011;44058;52.898;6.502;2022-09-09T07:27:44;9.70;;;8.75;;
58260;SDS011;44058;52.898;6.502;2022-09-09T07:30:29;9.32;;;8.43;;
58260;SDS011;44058;52.898;6.502;2022-09-09T07:33:15;9.80;;;8.82;;
58260;SDS011;44058;52.898;6.502;2022-09-09T07:36:05;8.80;;;7.68;;
58260;SDS011;44058;52.898;6.502;2022-09-09T07:38:54;8.43;;;7.50;;
58260;SDS011;44058;52.898;6.502;2022-09-09T07:41:42;8.10;;;7.40;;
58260;SDS011;44058;52.898;6.502;2022-09-09T07:44:30;8.85;;;7.50;;
58260;SDS011;44058;52.898;6.502;2022-09-09T07:47:19;8.38;;;7.40;;
58260;SDS011;44058;52.898;6.502;2022-09-09T07:50:05;8.23;;;7.40;;
58260;SDS011;44058;52.898;6.502;2022-09-09T07:52:51;9.30;;;8.20;;
58260;SDS011;44058;52.898;6.502;2022-09-09T07:55:38;9.40;;;7.80;;
58260;SDS011;44058;52.898;6.502;2022-09-09T07:58:24;8.05;;;6.97;;
58260;SDS011;44058;52.898;6.502;2022-09-09T08:01:14;8.77;;;7.50;;
58260;SDS011;44058;52.898;6.502;2022-09-09T08:04:15;7.80;;;6.75;;
58260;SDS011;44058;52.898;6.502;2022-09-09T08:07:02;7.13;;;6.43;;
58260;SDS011;44058;52.898;6.502;2022-09-09T08:09:48;10.27;;;6.80;;
58260;SDS011;44058;52.898;6.502;2022-09-09T08:12:34;8.05;;;7.25;;
58260;SDS011;44058;52.898;6.502;2022-09-09T08:15:20;8.60;;;6.93;;
58260;SDS011;44058;52.898;6.502;2022-09-09T08:18:05;8.02;;;6.50;;
58260;SDS011;44058;52.898;6.502;2022-09-09T08:20:51;9.85;;;7.05;;
58260;SDS011;44058;52.898;6.502;2022-09-09T08:23:37;8.15;;;6.43;;
58260;SDS011;44058;52.898;6.502;2022-09-09T08:26:28;7.78;;;6.63;;
58260;SDS011;44058;52.898;6.502;2022-09-09T08:29:18;9.48;;;6.80;;
58260;SDS011;44058;52.898;6.502;2022-09-09T08:32:04;9.23;;;6.72;;
58260;SDS011;44058;52.898;6.502;2022-09-09T08:34:50;9.40;;;6.45;;
58260;SDS011;44058;52.898;6.502;2022-09-09T08:37:36;9.23;;;6.60;;
58260;SDS011;44058;52.898;6.502;2022-09-09T08:40:22;11.02;;;6.55;;
58260;SDS011;44058;52.898;6.502;2022-09-09T08:43:13;7.15;;;6.15;;
58260;SDS011;44058;52.898;6.502;2022-09-09T08:46:14;10.88;;;6.68;;
58260;SDS011;44058;52.898;6.502;2022-09-09T08:49:30;11.10;;;6.68;;
58260;SDS011;44058;52.898;6.502;2022-09-09T08:52:28;12.23;;;7.10;;
58260;SDS011;44058;52.898;6.502;2022-09-09T08:55:34;9.93;;;6.60;;
58260;SDS011;44058;52.898;6.502;2022-09-09T08:58:38;8.52;;;5.78;;
58260;SDS011;44058;52.898;6.502;2022-09-09T09:01:42;9.63;;;6.07;;
58260;SDS011;44058;52.898;6.502;2022-09-09T09:04:50;10.60;;;5.85;;
58260;SDS011;44058;52.898;6.502;2022-09-09T09:07:59;8.10;;;5.20;;
58260;SDS011;44058;52.898;6.502;2022-09-09T09:10:55;8.25;;;5.05;;
58260;SDS011;44058;52.898;6.502;2022-09-09T09:13:50;10.60;;;4.68;;
58260;SDS011;44058;52.898;6.502;2022-09-09T09:19:42;8.63;;;5.13;;
58260;SDS011;44058;52.898;6.502;2022-09-09T09:22:34;8.60;;;4.40;;
58260;SDS011;44058;52.898;6.502;2022-09-09T09:25:35;7.93;;;4.47;;
58260;SDS011;44058;52.898;6.502;2022-09-09T09:28:25;9.93;;;4.35;;
58260;SDS011;44058;52.898;6.502;2022-09-09T09:31:16;8.00;;;3.83;;
58260;SDS011;44058;52.898;6.502;2022-09-09T09:36:57;9.40;;;4.28;;
58260;SDS011;44058;52.898;6.502;2022-09-09T09:39:43;8.57;;;3.42;;
58260;SDS011;44058;52.898;6.502;2022-09-09T09:42:29;6.88;;;3.70;;
58260;SDS011;44058;52.898;6.502;2022-09-09T09:45:28;6.03;;;3.63;;
58260;SDS011;44058;52.898;6.502;2022-09-09T09:48:19;8.23;;;3.53;;
58260;SDS011;44058;52.898;6.502;2022-09-09T09:51:08;9.38;;;3.35;;
58260;SDS011;44058;52.898;6.502;2022-09-09T09:54:09;8.38;;;3.20;;
58260;SDS011;44058;52.898;6.502;2022-09-09T09:57:13;5.38;;;3.17;;
58260;SDS011;44058;52.898;6.502;2022-09-09T10:00:02;7.15;;;2.63;;
58260;SDS011;44058;52.898;6.502;2022-09-09T10:02:52;6.75;;;2.42;;
58260;SDS011;44058;52.898;6.502;2022-09-09T10:05:38;5.82;;;2.40;;
58260;SDS011;44058;52.898;6.502;2022-09-09T10:08:33;7.97;;;2.53;;
58260;SDS011;44058;52.898;6.502;2022-09-09T10:11:43;5.60;;;2.33;;
58260;SDS011;44058;52.898;6.502;2022-09-09T10:14:50;6.68;;;2.38;;
58260;SDS011;44058;52.898;6.502;2022-09-09T10:18:08;7.70;;;2.33;;
58260;SDS011;44058;52.898;6.502;2022-09-09T10:21:17;9.27;;;2.22;;
58260;SDS011;44058;52.898;6.502;2022-09-09T10:30:17;6.45;;;2.30;;
58260;SDS011;44058;52.898;6.502;2022-09-09T10:33:26;7.43;;;2.15;;
58260;SDS011;44058;52.898;6.502;2022-09-09T10:36:22;5.38;;;2.22;;
58260;SDS011;44058;52.898;6.502;2022-09-09T10:39:16;6.93;;;2.08;;
58260;SDS011;44058;52.898;6.502;2022-09-09T10:42:12;8.07;;;2.28;;
58260;SDS011;44058;52.898;6.502;2022-09-09T10:45:18;4.95;;;2.40;;
58260;SDS011;44058;52.898;6.502;2022-09-09T10:51:23;8.35;;;2.60;;
58260;SDS011;44058;52.898;6.502;2022-09-09T10:57:34;5.23;;;2.17;;
58260;SDS011;44058;52.898;6.502;2022-09-09T11:00:25;6.28;;;2.20;;
58260;SDS011;44058;52.898;6.502;2022-09-09T11:03:22;4.78;;;2.00;;
58260;SDS011;44058;52.898;6.502;2022-09-09T11:06:13;8.98;;;2.70;;
58260;SDS011;44058;52.898;6.502;2022-09-09T11:09:02;5.57;;;2.22;;
58260;SDS011;44058;52.898;6.502;2022-09-09T11:11:56;5.82;;;2.08;;
58260;SDS011;44058;52.898;6.502;2022-09-09T11:14:44;4.90;;;1.80;;
58260;SDS011;44058;52.898;6.502;2022-09-09T11:17:52;4.40;;;1.90;;
58260;SDS011;44058;52.898;6.502;2022-09-09T11:20:42;6.82;;;2.40;;
58260;SDS011;44058;52.898;6.502;2022-09-09T11:23:40;9.82;;;2.88;;
58260;SDS011;44058;52.898;6.502;2022-09-09T11:26:38;5.90;;;2.00;;
58260;SDS011;44058;52.898;6.502;2022-09-09T11:42:07;6.95;;;2.25;;
58260;SDS011;44058;52.898;6.502;2022-09-09T11:45:10;8.18;;;2.08;;
58260;SDS011;44058;52.898;6.502;2022-09-09T11:48:28;6.47;;;2.17;;
58260;SDS011;44058;52.898;6.502;2022-09-09T11:57:31;5.93;;;1.80;;
58260;SDS011;44058;52.898;6.502;2022-09-09T12:00:39;5.63;;;1.90;;
58260;SDS011;44058;52.898;6.502;2022-09-09T12:06:43;6.28;;;2.10;;
58260;SDS011;44058;52.898;6.502;2022-09-09T12:09:45;5.10;;;2.08;;
58260;SDS011;44058;52.898;6.502;2022-09-09T12:12:41;4.65;;;1.90;;
58260;SDS011;44058;52.898;6.502;2022-09-09T12:15:28;6.47;;;1.88;;
58260;SDS011;44058;52.898;6.502;2022-09-09T12:18:14;6.63;;;2.25;;
58260;SDS011;44058;52.898;6.502;2022-09-09T12:21:21;5.22;;;1.75;;
58260;SDS011;44058;52.898;6.502;2022-09-09T12:24:33;4.30;;;2.10;;
58260;SDS011;44058;52.898;6.502;2022-09-09T12:27:25;4.65;;;1.88;;
58260;SDS011;44058;52.898;6.502;2022-09-09T12:30:16;5.57;;;2.15;;
58260;SDS011;44058;52.898;6.502;2022-09-09T12:33:06;5.68;;;2.00;;
58260;SDS011;44058;52.898;6.502;2022-09-09T12:35:57;4.75;;;1.77;;
58260;SDS011;44058;52.898;6.502;2022-09-09T12:38:45;6.18;;;1.77;;
58260;SDS011;44058;52.898;6.502;2022-09-09T12:41:31;7.25;;;2.10;;
58260;SDS011;44058;52.898;6.502;2022-09-09T12:44:17;4.05;;;1.65;;
58260;SDS011;44058;52.898;6.502;2022-09-09T12:47:02;6.00;;;2.00;;
58260;SDS011;44058;52.898;6.502;2022-09-09T12:49:49;4.82;;;2.05;;
58260;SDS011;44058;52.898;6.502;2022-09-09T12:52:36;4.55;;;1.77;;
58260;SDS011;44058;52.898;6.502;2022-09-09T12:55:24;4.55;;;1.50;;
58260;SDS011;44058;52.898;6.502;2022-09-09T12:58:15;5.10;;;1.60;;
58260;SDS011;44058;52.898;6.502;2022-09-09T13:03:51;9.10;;;1.63;;
58260;SDS011;44058;52.898;6.502;2022-09-09T13:06:37;4.00;;;1.30;;
58260;SDS011;44058;52.898;6.502;2022-09-09T13:09:23;4.43;;;1.60;;
58260;SDS011;44058;52.898;6.502;2022-09-09T13:12:11;4.18;;;1.40;;
58260;SDS011;44058;52.898;6.502;2022-09-09T13:15:00;3.55;;;1.48;;
58260;SDS011;44058;52.898;6.502;2022-09-09T13:18:06;4.63;;;1.40;;
58260;SDS011;44058;52.898;6.502;2022-09-09T13:20:57;4.82;;;1.60;;
58260;SDS011;44058;52.898;6.502;2022-09-09T13:23:48;3.58;;;1.40;;
58260;SDS011;44058;52.898;6.502;2022-09-09T13:26:35;5.82;;;1.80;;
58260;SDS011;44058;52.898;6.502;2022-09-09T13:29:20;4.88;;;1.55;;
58260;SDS011;44058;52.898;6.502;2022-09-09T13:32:18;7.18;;;1.40;;
58260;SDS011;44058;52.898;6.502;2022-09-09T13:35:04;2.90;;;1.40;;
58260;SDS011;44058;52.898;6.502;2022-09-09T13:38:08;4.15;;;1.60;;
58260;SDS011;44058;52.898;6.502;2022-09-09T13:40:55;4.22;;;1.20;;
58260;SDS011;44058;52.898;6.502;2022-09-09T13:43:44;5.15;;;1.60;;
58260;SDS011;44058;52.898;6.502;2022-09-09T13:49:22;3.35;;;1.10;;
58260;SDS011;44058;52.898;6.502;2022-09-09T13:52:12;3.97;;;1.00;;
58260;SDS011;44058;52.898;6.502;2022-09-09T13:54:59;1.85;;;0.70;;
58260;SDS011;44058;52.898;6.502;2022-09-09T13:57:55;2.78;;;0.98;;
58260;SDS011;44058;52.898;6.502;2022-09-09T14:00:41;2.53;;;0.80;;
58260;SDS011;44058;52.898;6.502;2022-09-09T14:03:26;3.03;;;0.90;;
58260;SDS011;44058;52.898;6.502;2022-09-09T14:06:13;2.25;;;1.10;;
58260;SDS011;44058;52.898;6.502;2022-09-09T14:08:58;2.53;;;1.45;;
58260;SDS011;44058;52.898;6.502;2022-09-09T14:11:44;2.47;;;1.42;;
58260;SDS011;44058;52.898;6.502;2022-09-09T14:14:31;4.07;;;1.27;;
58260;SDS011;44058;52.898;6.502;2022-09-09T14:17:17;2.60;;;1.35;;
58260;SDS011;44058;52.898;6.502;2022-09-09T14:20:03;4.45;;;1.38;;
58260;SDS011;44058;52.898;6.502;2022-09-09T14:22:56;4.30;;;1.70;;
58260;SDS011;44058;52.898;6.502;2022-09-09T14:25:43;3.28;;;1.40;;
58260;SDS011;44058;52.898;6.502;2022-09-09T14:28:28;4.13;;;1.48;;
58260;SDS011;44058;52.898;6.502;2022-09-09T14:31:14;3.25;;;1.35;;
58260;SDS011;44058;52.898;6.502;2022-09-09T14:34:02;2.20;;;1.02;;
58260;SDS011;44058;52.898;6.502;2022-09-09T14:36:48;2.22;;;0.90;;
58260;SDS011;44058;52.898;6.502;2022-09-09T14:39:33;2.45;;;1.00;;
58260;SDS011;44058;52.898;6.502;2022-09-09T14:42:19;2.22;;;0.82;;
58260;SDS011;44058;52.898;6.502;2022-09-09T14:45:05;3.83;;;1.25;;
58260;SDS011;44058;52.898;6.502;2022-09-09T14:47:51;2.83;;;1.25;;
58260;SDS011;44058;52.898;6.502;2022-09-09T14:50:37;2.83;;;1.02;;
58260;SDS011;44058;52.898;6.502;2022-09-09T14:53:25;1.80;;;1.10;;
58260;SDS011;44058;52.898;6.502;2022-09-09T14:56:15;2.25;;;1.10;;
58260;SDS011;44058;52.898;6.502;2022-09-09T14:59:07;2.17;;;1.00;;
58260;SDS011;44058;52.898;6.502;2022-09-09T15:01:52;3.30;;;1.00;;
58260;SDS011;44058;52.898;6.502;2022-09-09T15:04:38;2.75;;;1.17;;
58260;SDS011;44058;52.898;6.502;2022-09-09T15:07:14;3.58;;;1.25;;
58260;SDS011;44058;52.898;6.502;2022-09-09T15:09:40;4.10;;;1.50;;
58260;SDS011;44058;52.898;6.502;2022-09-09T15:12:07;3.10;;;1.20;;
58260;SDS011;44058;52.898;6.502;2022-09-09T15:14:34;2.65;;;1.30;;
58260;SDS011;44058;52.898;6.502;2022-09-09T15:17:01;2.83;;;1.20;;
58260;SDS011;44058;52.898;6.502;2022-09-09T15:19:26;2.75;;;1.20;;
58260;SDS011;44058;52.898;6.502;2022-09-09T15:21:52;2.65;;;1.33;;
58260;SDS011;44058;52.898;6.502;2022-09-09T15:24:17;3.22;;;1.60;;
58260;SDS011;44058;52.898;6.502;2022-09-09T15:26:43;3.22;;;1.52;;
58260;SDS011;44058;52.898;6.502;2022-09-09T15:29:09;1.95;;;0.98;;
58260;SDS011;44058;52.898;6.502;2022-09-09T15:31:35;3.72;;;1.50;;
58260;SDS011;44058;52.898;6.502;2022-09-09T15:34:02;2.70;;;1.13;;
58260;SDS011;44058;52.898;6.502;2022-09-09T15:36:32;2.63;;;1.10;;
58260;SDS011;44058;52.898;6.502;2022-09-09T15:39:09;1.60;;;1.33;;
58260;SDS011;44058;52.898;6.502;2022-09-09T15:41:41;2.65;;;1.25;;
58260;SDS011;44058;52.898;6.502;2022-09-09T15:44:11;2.70;;;1.30;;
58260;SDS011;44058;52.898;6.502;2022-09-09T15:46:38;3.00;;;1.15;;
58260;SDS011;44058;52.898;6.502;2022-09-09T15:49:24;3.92;;;1.38;;
58260;SDS011;44058;52.898;6.502;2022-09-09T15:51:52;2.53;;;1.15;;
58260;SDS011;44058;52.898;6.502;2022-09-09T15:54:20;2.10;;;1.30;;
58260;SDS011;44058;52.898;6.502;2022-09-09T15:59:16;3.13;;;1.67;;
58260;SDS011;44058;52.898;6.502;2022-09-09T16:01:42;3.60;;;1.65;;
58260;SDS011;44058;52.898;6.502;2022-09-09T16:04:08;4.68;;;1.73;;
58260;SDS011;44058;52.898;6.502;2022-09-09T16:06:34;5.25;;;2.05;;
58260;SDS011;44058;52.898;6.502;2022-09-09T16:09:02;3.45;;;1.70;;
58260;SDS011;44058;52.898;6.502;2022-09-09T16:11:30;3.75;;;1.60;;
58260;SDS011;44058;52.898;6.502;2022-09-09T16:13:57;2.90;;;1.70;;
58260;SDS011;44058;52.898;6.502;2022-09-09T16:16:24;2.72;;;1.73;;
58260;SDS011;44058;52.898;6.502;2022-09-09T16:18:53;3.70;;;1.67;;
58260;SDS011;44058;52.898;6.502;2022-09-09T16:21:24;3.85;;;1.90;;
58260;SDS011;44058;52.898;6.502;2022-09-09T16:23:55;3.72;;;1.90;;
58260;SDS011;44058;52.898;6.502;2022-09-09T16:26:22;4.63;;;1.88;;
58260;SDS011;44058;52.898;6.502;2022-09-09T16:28:48;5.38;;;2.15;;
58260;SDS011;44058;52.898;6.502;2022-09-09T16:31:15;3.33;;;1.88;;
58260;SDS011;44058;52.898;6.502;2022-09-09T16:33:43;3.50;;;2.10;;
58260;SDS011;44058;52.898;6.502;2022-09-09T16:36:10;3.63;;;2.00;;
58260;SDS011;44058;52.898;6.502;2022-09-09T16:38:38;3.75;;;2.42;;
58260;SDS011;44058;52.898;6.502;2022-09-09T16:41:04;4.22;;;1.98;;
58260;SDS011;44058;52.898;6.502;2022-09-09T16:43:32;2.17;;;1.58;;
58260;SDS011;44058;52.898;6.502;2022-09-09T16:45:58;3.70;;;1.70;;
58260;SDS011;44058;52.898;6.502;2022-09-09T16:48:26;2.80;;;1.60;;
58260;SDS011;44058;52.898;6.502;2022-09-09T16:51:00;4.03;;;1.95;;
58260;SDS011;44058;52.898;6.502;2022-09-09T16:53:27;2.90;;;1.45;;
58260;SDS011;44058;52.898;6.502;2022-09-09T16:55:53;5.10;;;2.15;;
58260;SDS011;44058;52.898;6.502;2022-09-09T16:58:18;2.85;;;1.70;;
58260;SDS011;44058;52.898;6.502;2022-09-09T17:00:44;4.43;;;2.03;;
58260;SDS011;44058;52.898;6.502;2022-09-09T17:03:14;4.13;;;2.10;;
58260;SDS011;44058;52.898;6.502;2022-09-09T17:05:41;4.43;;;2.00;;
58260;SDS011;44058;52.898;6.502;2022-09-09T17:08:07;4.10;;;2.05;;
58260;SDS011;44058;52.898;6.502;2022-09-09T17:10:33;5.50;;;2.03;;
58260;SDS011;44058;52.898;6.502;2022-09-09T17:12:59;3.35;;;2.28;;
58260;SDS011;44058;52.898;6.502;2022-09-09T17:15:24;4.47;;;2.38;;
58260;SDS011;44058;52.898;6.502;2022-09-09T17:17:50;3.30;;;2.05;;
58260;SDS011;44058;52.898;6.502;2022-09-09T17:20:19;2.88;;;2.10;;
58260;SDS011;44058;52.898;6.502;2022-09-09T17:22:45;5.55;;;2.42;;
58260;SDS011;44058;52.898;6.502;2022-09-09T17:25:17;3.85;;;2.08;;
58260;SDS011;44058;52.898;6.502;2022-09-09T17:27:46;3.28;;;2.13;;
58260;SDS011;44058;52.898;6.502;2022-09-09T17:30:12;3.42;;;2.30;;
58260;SDS011;44058;52.898;6.502;2022-09-09T17:32:44;4.88;;;2.42;;
58260;SDS011;44058;52.898;6.502;2022-09-09T17:35:09;4.25;;;2.10;;
58260;SDS011;44058;52.898;6.502;2022-09-09T17:37:35;3.53;;;2.55;;
58260;SDS011;44058;52.898;6.502;2022-09-09T17:40:01;3.70;;;2.20;;
58260;SDS011;44058;52.898;6.502;2022-09-09T17:42:27;4.20;;;2.40;;
58260;SDS011;44058;52.898;6.502;2022-09-09T17:44:53;4.55;;;2.58;;
58260;SDS011;44058;52.898;6.502;2022-09-09T17:47:18;4.25;;;2.40;;
58260;SDS011;44058;52.898;6.502;2022-09-09T17:49:45;5.65;;;3.00;;
58260;SDS011;44058;52.898;6.502;2022-09-09T17:52:11;7.97;;;3.20;;
58260;SDS011;44058;52.898;6.502;2022-09-09T17:54:37;5.45;;;3.38;;
58260;SDS011;44058;52.898;6.502;2022-09-09T17:57:02;5.10;;;2.90;;
58260;SDS011;44058;52.898;6.502;2022-09-09T17:59:28;4.72;;;2.85;;
58260;SDS011;44058;52.898;6.502;2022-09-09T18:01:55;5.30;;;2.95;;
58260;SDS011;44058;52.898;6.502;2022-09-09T18:04:21;4.75;;;2.95;;
58260;SDS011;44058;52.898;6.502;2022-09-09T18:06:48;5.97;;;2.90;;